sensor_id;sensor_type;location;lat;lon;timestamp;P1;durP1;ratioP1;P2;durP2;ratioP2
18249;SDS011;27980;52.126;5.572;2023-03-11T00:01:47;9.95;;;3.60;;
18249;SDS011;27980;52.126;5.572;2023-03-11T00:04:14;12.63;;;2.85;;
18249;SDS011;27980;52.126;5.572;2023-03-11T00:06:40;9.55;;;3.10;;
18249;SDS011;27980;52.126;5.572;2023-03-11T00:09:08;6.45;;;2.58;;
18249;SDS011;27980;52.126;5.572;2023-03-11T00:11:34;3.63;;;2.15;;
18249;SDS011;27980;52.126;5.572;2023-03-11T00:14:01;4.90;;;2.20;;
18249;SDS011;27980;52.126;5.572;2023-03-11T00:16:27;4.32;;;2.15;;
18249;SDS011;27980;52.126;5.572;2023-03-11T00:18:54;6.38;;;2.30;;
18249;SDS011;27980;52.126;5.572;2023-03-11T00:21:21;7.38;;;2.33;;
18249;SDS011;27980;52.126;5.572;2023-03-11T00:23:47;7.65;;;2.38;;
18249;SDS011;27980;52.126;5.572;2023-03-11T00:26:15;5.88;;;2.35;;
18249;SDS011;27980;52.126;5.572;2023-03-11T00:28:41;6.53;;;2.65;;
18249;SDS011;27980;52.126;5.572;2023-03-11T00:31:09;3.78;;;2.22;;
18249;SDS011;27980;52.126;5.572;2023-03-11T00:33:36;7.40;;;2.50;;
18249;SDS011;27980;52.126;5.572;2023-03-11T00:36:04;8.57;;;2.40;;
18249;SDS011;27980;52.126;5.572;2023-03-11T00:38:31;5.07;;;2.13;;
18249;SDS011;27980;52.126;5.572;2023-03-11T00:40:57;8.25;;;2.00;;
18249;SDS011;27980;52.126;5.572;2023-03-11T00:43:27;12.23;;;2.13;;
18249;SDS011;27980;52.126;5.572;2023-03-11T00:45:53;5.53;;;2.45;;
18249;SDS011;27980;52.126;5.572;2023-03-11T00:48:22;6.38;;;2.00;;
18249;SDS011;27980;52.126;5.572;2023-03-11T00:50:48;5.97;;;2.25;;
18249;SDS011;27980;52.126;5.572;2023-03-11T00:53:15;8.48;;;2.20;;
18249;SDS011;27980;52.126;5.572;2023-03-11T00:55:41;5.97;;;2.10;;
18249;SDS011;27980;52.126;5.572;2023-03-11T00:58:09;9.60;;;2.33;;
18249;SDS011;27980;52.126;5.572;2023-03-11T01:00:37;4.80;;;2.17;;
18249;SDS011;27980;52.126;5.572;2023-03-11T01:03:03;8.23;;;2.10;;
18249;SDS011;27980;52.126;5.572;2023-03-11T01:05:30;8.93;;;2.60;;
18249;SDS011;27980;52.126;5.572;2023-03-11T01:07:57;12.07;;;2.47;;
18249;SDS011;27980;52.126;5.572;2023-03-11T01:10:24;8.55;;;2.42;;
18249;SDS011;27980;52.126;5.572;2023-03-11T01:12:51;6.93;;;2.85;;
18249;SDS011;27980;52.126;5.572;2023-03-11T01:15:19;10.65;;;2.40;;
18249;SDS011;27980;52.126;5.572;2023-03-11T01:17:47;8.25;;;2.20;;
18249;SDS011;27980;52.126;5.572;2023-03-11T01:20:13;4.00;;;2.15;;
18249;SDS011;27980;52.126;5.572;2023-03-11T01:22:40;4.68;;;2.25;;
18249;SDS011;27980;52.126;5.572;2023-03-11T01:25:06;6.57;;;2.83;;
18249;SDS011;27980;52.126;5.572;2023-03-11T01:27:34;4.45;;;2.13;;
18249;SDS011;27980;52.126;5.572;2023-03-11T01:30:00;4.93;;;2.30;;
18249;SDS011;27980;52.126;5.572;2023-03-11T01:32:27;9.43;;;2.58;;
18249;SDS011;27980;52.126;5.572;2023-03-11T01:34:54;6.80;;;2.30;;
18249;SDS011;27980;52.126;5.572;2023-03-11T01:37:21;3.80;;;2.20;;
18249;SDS011;27980;52.126;5.572;2023-03-11T01:39:47;5.20;;;2.58;;
18249;SDS011;27980;52.126;5.572;2023-03-11T01:42:14;7.65;;;2.28;;
18249;SDS011;27980;52.126;5.572;2023-03-11T01:44:40;7.28;;;2.50;;
18249;SDS011;27980;52.126;5.572;2023-03-11T01:49:52;6.32;;;3.10;;
18249;SDS011;27980;52.126;5.572;2023-03-11T01:52:20;9.00;;;2.83;;
18249;SDS011;27980;52.126;5.572;2023-03-11T01:54:46;6.55;;;2.60;;
18249;SDS011;27980;52.126;5.572;2023-03-11T01:57:13;5.45;;;2.60;;
18249;SDS011;27980;52.126;5.572;2023-03-11T01:59:41;3.30;;;2.17;;
18249;SDS011;27980;52.126;5.572;2023-03-11T02:02:09;3.67;;;2.33;;
18249;SDS011;27980;52.126;5.572;2023-03-11T02:04:37;6.03;;;2.60;;
18249;SDS011;27980;52.126;5.572;2023-03-11T02:07:04;4.80;;;2.58;;
18249;SDS011;27980;52.126;5.572;2023-03-11T02:09:33;9.73;;;2.47;;
18249;SDS011;27980;52.126;5.572;2023-03-11T02:12:00;11.35;;;2.40;;
18249;SDS011;27980;52.126;5.572;2023-03-11T02:14:26;5.80;;;2.20;;
18249;SDS011;27980;52.126;5.572;2023-03-11T02:16:54;5.93;;;2.03;;
18249;SDS011;27980;52.126;5.572;2023-03-11T02:19:23;4.13;;;2.17;;
18249;SDS011;27980;52.126;5.572;2023-03-11T02:21:52;8.80;;;2.00;;
18249;SDS011;27980;52.126;5.572;2023-03-11T02:24:21;5.30;;;2.28;;
18249;SDS011;27980;52.126;5.572;2023-03-11T02:26:53;4.57;;;2.33;;
18249;SDS011;27980;52.126;5.572;2023-03-11T02:29:20;6.93;;;1.90;;
18249;SDS011;27980;52.126;5.572;2023-03-11T02:31:47;3.20;;;1.88;;
18249;SDS011;27980;52.126;5.572;2023-03-11T02:34:15;6.90;;;2.30;;
18249;SDS011;27980;52.126;5.572;2023-03-11T02:36:44;10.45;;;2.17;;
18249;SDS011;27980;52.126;5.572;2023-03-11T02:39:10;3.22;;;2.20;;
18249;SDS011;27980;52.126;5.572;2023-03-11T02:41:37;7.45;;;2.20;;
18249;SDS011;27980;52.126;5.572;2023-03-11T02:44:05;7.30;;;2.40;;
18249;SDS011;27980;52.126;5.572;2023-03-11T02:46:33;9.63;;;2.58;;
18249;SDS011;27980;52.126;5.572;2023-03-11T02:48:59;7.93;;;2.08;;
18249;SDS011;27980;52.126;5.572;2023-03-11T02:51:26;9.27;;;2.10;;
18249;SDS011;27980;52.126;5.572;2023-03-11T02:53:54;6.30;;;2.03;;
18249;SDS011;27980;52.126;5.572;2023-03-11T02:56:21;6.13;;;2.33;;
18249;SDS011;27980;52.126;5.572;2023-03-11T02:58:48;5.18;;;1.80;;
18249;SDS011;27980;52.126;5.572;2023-03-11T03:01:16;4.28;;;2.00;;
18249;SDS011;27980;52.126;5.572;2023-03-11T03:03:42;3.75;;;2.13;;
18249;SDS011;27980;52.126;5.572;2023-03-11T03:06:09;7.53;;;1.77;;
18249;SDS011;27980;52.126;5.572;2023-03-11T03:08:35;6.65;;;1.88;;
18249;SDS011;27980;52.126;5.572;2023-03-11T03:11:03;6.60;;;2.05;;
18249;SDS011;27980;52.126;5.572;2023-03-11T03:13:29;4.15;;;1.90;;
18249;SDS011;27980;52.126;5.572;2023-03-11T03:15:56;6.20;;;2.30;;
18249;SDS011;27980;52.126;5.572;2023-03-11T03:18:24;8.75;;;2.33;;
18249;SDS011;27980;52.126;5.572;2023-03-11T03:20:50;3.53;;;1.90;;
18249;SDS011;27980;52.126;5.572;2023-03-11T03:23:17;4.60;;;1.80;;
18249;SDS011;27980;52.126;5.572;2023-03-11T03:25:44;5.15;;;2.05;;
18249;SDS011;27980;52.126;5.572;2023-03-11T03:28:11;5.72;;;2.13;;
18249;SDS011;27980;52.126;5.572;2023-03-11T03:30:40;5.75;;;2.10;;
18249;SDS011;27980;52.126;5.572;2023-03-11T03:33:06;11.98;;;2.15;;
18249;SDS011;27980;52.126;5.572;2023-03-11T03:35:34;6.18;;;1.95;;
18249;SDS011;27980;52.126;5.572;2023-03-11T03:38:00;6.47;;;2.25;;
18249;SDS011;27980;52.126;5.572;2023-03-11T03:40:27;11.90;;;2.33;;
18249;SDS011;27980;52.126;5.572;2023-03-11T03:42:54;7.35;;;2.58;;
18249;SDS011;27980;52.126;5.572;2023-03-11T03:45:21;7.80;;;2.60;;
18249;SDS011;27980;52.126;5.572;2023-03-11T03:47:48;12.00;;;3.67;;
18249;SDS011;27980;52.126;5.572;2023-03-11T03:50:14;14.05;;;3.17;;
18249;SDS011;27980;52.126;5.572;2023-03-11T03:52:42;6.22;;;2.80;;
18249;SDS011;27980;52.126;5.572;2023-03-11T03:55:09;7.00;;;2.65;;
18249;SDS011;27980;52.126;5.572;2023-03-11T03:57:35;7.10;;;3.35;;
18249;SDS011;27980;52.126;5.572;2023-03-11T04:00:02;9.07;;;3.00;;
18249;SDS011;27980;52.126;5.572;2023-03-11T04:02:29;6.15;;;2.70;;
18249;SDS011;27980;52.126;5.572;2023-03-11T04:04:56;5.57;;;2.13;;
18249;SDS011;27980;52.126;5.572;2023-03-11T04:07:22;8.68;;;2.67;;
18249;SDS011;27980;52.126;5.572;2023-03-11T04:09:50;5.78;;;2.10;;
18249;SDS011;27980;52.126;5.572;2023-03-11T04:12:16;12.27;;;2.55;;
18249;SDS011;27980;52.126;5.572;2023-03-11T04:14:43;9.13;;;1.90;;
18249;SDS011;27980;52.126;5.572;2023-03-11T04:17:09;5.55;;;1.80;;
18249;SDS011;27980;52.126;5.572;2023-03-11T04:19:36;8.18;;;1.85;;
18249;SDS011;27980;52.126;5.572;2023-03-11T04:22:03;6.35;;;2.05;;
18249;SDS011;27980;52.126;5.572;2023-03-11T04:24:29;3.65;;;1.90;;
18249;SDS011;27980;52.126;5.572;2023-03-11T04:26:57;4.82;;;1.75;;
18249;SDS011;27980;52.126;5.572;2023-03-11T04:29:24;8.65;;;2.10;;
18249;SDS011;27980;52.126;5.572;2023-03-11T04:31:50;10.75;;;1.70;;
18249;SDS011;27980;52.126;5.572;2023-03-11T04:34:17;2.75;;;1.95;;
18249;SDS011;27980;52.126;5.572;2023-03-11T04:36:43;7.35;;;1.92;;
18249;SDS011;27980;52.126;5.572;2023-03-11T04:39:10;3.40;;;1.70;;
18249;SDS011;27980;52.126;5.572;2023-03-11T04:41:36;6.78;;;2.22;;
18249;SDS011;27980;52.126;5.572;2023-03-11T04:44:04;5.15;;;1.90;;
18249;SDS011;27980;52.126;5.572;2023-03-11T04:46:31;3.03;;;1.83;;
18249;SDS011;27980;52.126;5.572;2023-03-11T04:48:57;10.00;;;2.30;;
18249;SDS011;27980;52.126;5.572;2023-03-11T04:51:23;2.85;;;2.03;;
18249;SDS011;27980;52.126;5.572;2023-03-11T04:53:50;6.07;;;2.30;;
18249;SDS011;27980;52.126;5.572;2023-03-11T04:56:16;4.97;;;2.10;;
18249;SDS011;27980;52.126;5.572;2023-03-11T04:58:43;3.15;;;1.70;;
18249;SDS011;27980;52.126;5.572;2023-03-11T05:01:10;4.55;;;1.80;;
18249;SDS011;27980;52.126;5.572;2023-03-11T05:03:37;6.57;;;2.00;;
18249;SDS011;27980;52.126;5.572;2023-03-11T05:06:03;5.18;;;1.90;;
18249;SDS011;27980;52.126;5.572;2023-03-11T05:08:30;3.58;;;1.70;;
18249;SDS011;27980;52.126;5.572;2023-03-11T05:10:56;3.70;;;1.90;;
18249;SDS011;27980;52.126;5.572;2023-03-11T05:13:23;7.63;;;2.03;;
18249;SDS011;27980;52.126;5.572;2023-03-11T05:15:49;4.28;;;1.80;;
18249;SDS011;27980;52.126;5.572;2023-03-11T05:18:19;3.05;;;1.95;;
18249;SDS011;27980;52.126;5.572;2023-03-11T05:20:46;2.58;;;1.63;;
18249;SDS011;27980;52.126;5.572;2023-03-11T05:23:12;5.00;;;1.90;;
18249;SDS011;27980;52.126;5.572;2023-03-11T05:25:38;4.18;;;2.00;;
18249;SDS011;27980;52.126;5.572;2023-03-11T05:28:05;7.95;;;1.90;;
18249;SDS011;27980;52.126;5.572;2023-03-11T05:30:31;3.10;;;1.90;;
18249;SDS011;27980;52.126;5.572;2023-03-11T05:32:58;4.70;;;1.75;;
18249;SDS011;27980;52.126;5.572;2023-03-11T05:35:26;10.77;;;2.05;;
18249;SDS011;27980;52.126;5.572;2023-03-11T05:37:52;3.63;;;2.03;;
18249;SDS011;27980;52.126;5.572;2023-03-11T05:40:19;3.50;;;2.22;;
18249;SDS011;27980;52.126;5.572;2023-03-11T05:42:45;6.78;;;2.08;;
18249;SDS011;27980;52.126;5.572;2023-03-11T05:45:12;5.82;;;2.25;;
18249;SDS011;27980;52.126;5.572;2023-03-11T05:47:38;3.10;;;2.10;;
18249;SDS011;27980;52.126;5.572;2023-03-11T05:50:06;4.63;;;2.10;;
18249;SDS011;27980;52.126;5.572;2023-03-11T05:52:34;7.50;;;2.22;;
18249;SDS011;27980;52.126;5.572;2023-03-11T05:55:01;3.15;;;2.70;;
18249;SDS011;27980;52.126;5.572;2023-03-11T05:57:28;10.75;;;6.13;;
18249;SDS011;27980;52.126;5.572;2023-03-11T05:59:55;9.68;;;6.35;;
18249;SDS011;27980;52.126;5.572;2023-03-11T06:02:21;10.88;;;7.47;;
18249;SDS011;27980;52.126;5.572;2023-03-11T06:04:48;12.43;;;7.40;;
18249;SDS011;27980;52.126;5.572;2023-03-11T06:07:14;13.18;;;6.90;;
18249;SDS011;27980;52.126;5.572;2023-03-11T06:09:42;8.10;;;5.82;;
18249;SDS011;27980;52.126;5.572;2023-03-11T06:12:08;9.77;;;5.40;;
18249;SDS011;27980;52.126;5.572;2023-03-11T06:14:35;10.98;;;4.45;;
18249;SDS011;27980;52.126;5.572;2023-03-11T06:17:02;8.57;;;5.00;;
18249;SDS011;27980;52.126;5.572;2023-03-11T06:19:30;7.75;;;4.07;;
18249;SDS011;27980;52.126;5.572;2023-03-11T06:21:57;4.65;;;2.92;;
18249;SDS011;27980;52.126;5.572;2023-03-11T06:24:23;8.50;;;3.33;;
18249;SDS011;27980;52.126;5.572;2023-03-11T06:26:51;6.38;;;3.20;;
18249;SDS011;27980;52.126;5.572;2023-03-11T06:29:17;5.65;;;3.00;;
18249;SDS011;27980;52.126;5.572;2023-03-11T06:31:45;5.13;;;2.90;;
18249;SDS011;27980;52.126;5.572;2023-03-11T06:34:12;8.35;;;2.75;;
18249;SDS011;27980;52.126;5.572;2023-03-11T06:36:38;6.85;;;2.75;;
18249;SDS011;27980;52.126;5.572;2023-03-11T06:39:05;7.70;;;2.97;;
18249;SDS011;27980;52.126;5.572;2023-03-11T06:41:32;4.70;;;2.60;;
18249;SDS011;27980;52.126;5.572;2023-03-11T06:44:00;10.68;;;3.05;;
18249;SDS011;27980;52.126;5.572;2023-03-11T06:46:28;6.18;;;2.58;;
18249;SDS011;27980;52.126;5.572;2023-03-11T06:48:54;8.00;;;2.90;;
18249;SDS011;27980;52.126;5.572;2023-03-11T06:51:21;6.75;;;2.97;;
18249;SDS011;27980;52.126;5.572;2023-03-11T06:53:47;6.47;;;2.90;;
18249;SDS011;27980;52.126;5.572;2023-03-11T06:56:14;4.38;;;2.83;;
18249;SDS011;27980;52.126;5.572;2023-03-11T06:58:41;6.15;;;2.83;;
18249;SDS011;27980;52.126;5.572;2023-03-11T07:01:09;4.57;;;2.55;;
18249;SDS011;27980;52.126;5.572;2023-03-11T07:03:37;3.33;;;2.78;;
18249;SDS011;27980;52.126;5.572;2023-03-11T07:06:03;6.88;;;3.00;;
18249;SDS011;27980;52.126;5.572;2023-03-11T07:08:30;6.00;;;2.95;;
18249;SDS011;27980;52.126;5.572;2023-03-11T07:11:00;6.18;;;3.33;;
18249;SDS011;27980;52.126;5.572;2023-03-11T07:13:26;8.07;;;3.53;;
18249;SDS011;27980;52.126;5.572;2023-03-11T07:16:00;6.85;;;2.97;;
18249;SDS011;27980;52.126;5.572;2023-03-11T07:18:28;10.65;;;3.28;;
18249;SDS011;27980;52.126;5.572;2023-03-11T07:20:54;9.05;;;3.78;;
18249;SDS011;27980;52.126;5.572;2023-03-11T07:23:21;9.57;;;3.03;;
18249;SDS011;27980;52.126;5.572;2023-03-11T07:25:47;5.78;;;3.40;;
18249;SDS011;27980;52.126;5.572;2023-03-11T07:28:15;9.27;;;4.00;;
18249;SDS011;27980;52.126;5.572;2023-03-11T07:30:42;5.85;;;3.70;;
18249;SDS011;27980;52.126;5.572;2023-03-11T07:33:11;5.50;;;2.78;;
18249;SDS011;27980;52.126;5.572;2023-03-11T07:35:39;7.45;;;2.47;;
18249;SDS011;27980;52.126;5.572;2023-03-11T07:38:05;9.38;;;2.05;;
18249;SDS011;27980;52.126;5.572;2023-03-11T07:40:32;4.45;;;2.00;;
18249;SDS011;27980;52.126;5.572;2023-03-11T07:42:58;7.10;;;2.53;;
18249;SDS011;27980;52.126;5.572;2023-03-11T07:45:25;4.03;;;2.03;;
18249;SDS011;27980;52.126;5.572;2023-03-11T07:47:51;6.63;;;1.80;;
18249;SDS011;27980;52.126;5.572;2023-03-11T07:50:18;7.28;;;1.65;;
18249;SDS011;27980;52.126;5.572;2023-03-11T07:52:47;3.00;;;1.73;;
18249;SDS011;27980;52.126;5.572;2023-03-11T07:55:14;3.15;;;1.50;;
18249;SDS011;27980;52.126;5.572;2023-03-11T07:57:40;5.40;;;1.42;;
18249;SDS011;27980;52.126;5.572;2023-03-11T08:00:07;4.47;;;1.73;;
18249;SDS011;27980;52.126;5.572;2023-03-11T08:02:34;3.95;;;1.70;;
18249;SDS011;27980;52.126;5.572;2023-03-11T08:05:00;5.32;;;1.40;;
18249;SDS011;27980;52.126;5.572;2023-03-11T08:07:26;6.25;;;1.60;;
18249;SDS011;27980;52.126;5.572;2023-03-11T08:10:01;3.33;;;1.40;;
18249;SDS011;27980;52.126;5.572;2023-03-11T08:12:28;3.97;;;1.40;;
18249;SDS011;27980;52.126;5.572;2023-03-11T08:14:54;5.18;;;1.30;;
18249;SDS011;27980;52.126;5.572;2023-03-11T08:17:21;3.00;;;1.10;;
18249;SDS011;27980;52.126;5.572;2023-03-11T08:19:48;4.32;;;1.42;;
18249;SDS011;27980;52.126;5.572;2023-03-11T08:22:14;3.35;;;1.10;;
18249;SDS011;27980;52.126;5.572;2023-03-11T08:24:41;2.25;;;0.90;;
18249;SDS011;27980;52.126;5.572;2023-03-11T08:27:09;2.90;;;1.13;;
18249;SDS011;27980;52.126;5.572;2023-03-11T08:29:36;5.25;;;1.17;;
18249;SDS011;27980;52.126;5.572;2023-03-11T08:32:02;3.83;;;1.23;;
18249;SDS011;27980;52.126;5.572;2023-03-11T08:34:29;3.83;;;1.17;;
18249;SDS011;27980;52.126;5.572;2023-03-11T08:36:56;2.42;;;1.10;;
18249;SDS011;27980;52.126;5.572;2023-03-11T08:39:23;1.67;;;1.23;;
18249;SDS011;27980;52.126;5.572;2023-03-11T08:41:50;4.18;;;1.50;;
18249;SDS011;27980;52.126;5.572;2023-03-11T08:44:18;3.15;;;1.40;;
18249;SDS011;27980;52.126;5.572;2023-03-11T08:46:45;5.43;;;2.17;;
18249;SDS011;27980;52.126;5.572;2023-03-11T08:49:11;5.18;;;1.73;;
18249;SDS011;27980;52.126;5.572;2023-03-11T08:51:38;2.40;;;1.08;;
18249;SDS011;27980;52.126;5.572;2023-03-11T08:54:04;3.40;;;1.30;;
18249;SDS011;27980;52.126;5.572;2023-03-11T08:56:30;1.20;;;1.10;;
18249;SDS011;27980;52.126;5.572;2023-03-11T08:58:58;3.95;;;1.60;;
18249;SDS011;27980;52.126;5.572;2023-03-11T09:01:26;4.80;;;1.65;;
18249;SDS011;27980;52.126;5.572;2023-03-11T09:03:53;7.82;;;1.58;;
18249;SDS011;27980;52.126;5.572;2023-03-11T09:06:20;9.60;;;1.33;;
18249;SDS011;27980;52.126;5.572;2023-03-11T09:08:47;5.10;;;1.63;;
18249;SDS011;27980;52.126;5.572;2023-03-11T09:11:15;5.60;;;1.27;;
18249;SDS011;27980;52.126;5.572;2023-03-11T09:13:42;4.43;;;1.58;;
18249;SDS011;27980;52.126;5.572;2023-03-11T09:16:09;4.82;;;1.85;;
18249;SDS011;27980;52.126;5.572;2023-03-11T09:18:38;3.75;;;1.48;;
18249;SDS011;27980;52.126;5.572;2023-03-11T09:21:05;4.82;;;1.60;;
18249;SDS011;27980;52.126;5.572;2023-03-11T09:23:31;3.55;;;1.55;;
18249;SDS011;27980;52.126;5.572;2023-03-11T09:25:58;3.55;;;1.40;;
18249;SDS011;27980;52.126;5.572;2023-03-11T09:28:24;4.28;;;1.58;;
18249;SDS011;27980;52.126;5.572;2023-03-11T09:30:51;7.00;;;1.42;;
18249;SDS011;27980;52.126;5.572;2023-03-11T09:33:17;3.97;;;1.10;;
18249;SDS011;27980;52.126;5.572;2023-03-11T09:35:45;2.25;;;0.90;;
18249;SDS011;27980;52.126;5.572;2023-03-11T09:38:12;4.32;;;1.10;;
18249;SDS011;27980;52.126;5.572;2023-03-11T09:40:42;4.30;;;1.67;;
18249;SDS011;27980;52.126;5.572;2023-03-11T09:43:17;2.10;;;1.20;;
18249;SDS011;27980;52.126;5.572;2023-03-11T09:45:50;5.03;;;1.40;;
18249;SDS011;27980;52.126;5.572;2023-03-11T09:48:19;2.60;;;1.13;;
18249;SDS011;27980;52.126;5.572;2023-03-11T09:50:50;3.53;;;1.38;;
18249;SDS011;27980;52.126;5.572;2023-03-11T09:53:25;3.70;;;1.10;;
18249;SDS011;27980;52.126;5.572;2023-03-11T09:55:54;2.65;;;0.90;;
18249;SDS011;27980;52.126;5.572;2023-03-11T09:58:26;1.95;;;0.85;;
18249;SDS011;27980;52.126;5.572;2023-03-11T10:00:54;4.18;;;1.05;;
18249;SDS011;27980;52.126;5.572;2023-03-11T10:03:25;4.80;;;1.20;;
18249;SDS011;27980;52.126;5.572;2023-03-11T10:05:56;2.25;;;1.02;;
18249;SDS011;27980;52.126;5.572;2023-03-11T10:08:23;3.13;;;1.00;;
18249;SDS011;27980;52.126;5.572;2023-03-11T10:10:54;2.83;;;1.20;;
18249;SDS011;27980;52.126;5.572;2023-03-11T10:13:23;2.72;;;1.05;;
18249;SDS011;27980;52.126;5.572;2023-03-11T10:15:54;4.60;;;1.17;;
18249;SDS011;27980;52.126;5.572;2023-03-11T10:18:28;3.17;;;1.10;;
18249;SDS011;27980;52.126;5.572;2023-03-11T10:21:01;3.65;;;1.00;;
18249;SDS011;27980;52.126;5.572;2023-03-11T10:23:32;4.03;;;0.82;;
18249;SDS011;27980;52.126;5.572;2023-03-11T10:26:02;2.45;;;0.80;;
18249;SDS011;27980;52.126;5.572;2023-03-11T10:28:31;3.40;;;1.17;;
18249;SDS011;27980;52.126;5.572;2023-03-11T10:31:00;3.30;;;1.13;;
18249;SDS011;27980;52.126;5.572;2023-03-11T10:33:28;3.65;;;1.40;;
18249;SDS011;27980;52.126;5.572;2023-03-11T10:35:57;3.40;;;1.10;;
18249;SDS011;27980;52.126;5.572;2023-03-11T10:38:27;3.35;;;0.90;;
18249;SDS011;27980;52.126;5.572;2023-03-11T10:40:56;2.83;;;0.90;;
18249;SDS011;27980;52.126;5.572;2023-03-11T10:43:26;3.75;;;1.13;;
18249;SDS011;27980;52.126;5.572;2023-03-11T10:45:53;2.70;;;0.93;;
18249;SDS011;27980;52.126;5.572;2023-03-11T10:48:20;3.80;;;0.82;;
18249;SDS011;27980;52.126;5.572;2023-03-11T10:50:49;5.72;;;0.90;;
18249;SDS011;27980;52.126;5.572;2023-03-11T10:53:16;1.33;;;0.50;;
18249;SDS011;27980;52.126;5.572;2023-03-11T10:55:46;1.95;;;0.80;;
18249;SDS011;27980;52.126;5.572;2023-03-11T10:58:14;0.77;;;0.60;;
18249;SDS011;27980;52.126;5.572;2023-03-11T11:00:41;4.05;;;1.00;;
18249;SDS011;27980;52.126;5.572;2023-03-11T11:03:11;2.78;;;0.88;;
18249;SDS011;27980;52.126;5.572;2023-03-11T11:05:41;2.15;;;0.80;;
18249;SDS011;27980;52.126;5.572;2023-03-11T11:08:11;1.27;;;0.70;;
18249;SDS011;27980;52.126;5.572;2023-03-11T11:10:47;4.43;;;1.00;;
18249;SDS011;27980;52.126;5.572;2023-03-11T11:13:16;2.10;;;1.00;;
18249;SDS011;27980;52.126;5.572;2023-03-11T11:15:50;3.75;;;1.10;;
18249;SDS011;27980;52.126;5.572;2023-03-11T11:18:21;3.17;;;0.75;;
18249;SDS011;27980;52.126;5.572;2023-03-11T11:20:58;1.35;;;0.82;;
18249;SDS011;27980;52.126;5.572;2023-03-11T11:23:27;4.57;;;0.95;;
18249;SDS011;27980;52.126;5.572;2023-03-11T11:25:56;2.13;;;0.88;;
18249;SDS011;27980;52.126;5.572;2023-03-11T11:28:25;1.88;;;0.90;;
18249;SDS011;27980;52.126;5.572;2023-03-11T11:30:52;2.10;;;1.10;;
18249;SDS011;27980;52.126;5.572;2023-03-11T11:33:21;2.83;;;0.85;;
18249;SDS011;27980;52.126;5.572;2023-03-11T11:35:49;3.13;;;0.90;;
18249;SDS011;27980;52.126;5.572;2023-03-11T11:38:16;2.15;;;0.85;;
18249;SDS011;27980;52.126;5.572;2023-03-11T11:40:43;1.98;;;0.90;;
18249;SDS011;27980;52.126;5.572;2023-03-11T11:43:11;2.92;;;0.93;;
18249;SDS011;27980;52.126;5.572;2023-03-11T11:45:41;2.60;;;1.10;;
18249;SDS011;27980;52.126;5.572;2023-03-11T11:48:10;3.72;;;1.02;;
18249;SDS011;27980;52.126;5.572;2023-03-11T11:50:40;1.60;;;0.82;;
18249;SDS011;27980;52.126;5.572;2023-03-11T11:55:51;3.90;;;1.10;;
18249;SDS011;27980;52.126;5.572;2023-03-11T11:58:18;2.55;;;0.90;;
18249;SDS011;27980;52.126;5.572;2023-03-11T12:00:48;3.60;;;1.10;;
18249;SDS011;27980;52.126;5.572;2023-03-11T12:03:20;1.90;;;0.70;;
18249;SDS011;27980;52.126;5.572;2023-03-11T12:05:53;1.88;;;0.95;;
18249;SDS011;27980;52.126;5.572;2023-03-11T12:08:22;2.45;;;0.90;;
18249;SDS011;27980;52.126;5.572;2023-03-11T12:10:52;4.50;;;0.98;;
18249;SDS011;27980;52.126;5.572;2023-03-11T12:13:34;3.00;;;1.10;;
18249;SDS011;27980;52.126;5.572;2023-03-11T12:16:09;2.92;;;1.40;;
18249;SDS011;27980;52.126;5.572;2023-03-11T12:18:39;2.83;;;1.20;;
18249;SDS011;27980;52.126;5.572;2023-03-11T12:21:10;3.85;;;0.90;;
18249;SDS011;27980;52.126;5.572;2023-03-11T12:23:40;2.83;;;0.90;;
18249;SDS011;27980;52.126;5.572;2023-03-11T12:26:12;2.75;;;1.10;;
18249;SDS011;27980;52.126;5.572;2023-03-11T12:28:41;3.13;;;1.33;;
18249;SDS011;27980;52.126;5.572;2023-03-11T12:31:12;3.03;;;0.80;;
18249;SDS011;27980;52.126;5.572;2023-03-11T12:33:39;2.28;;;0.93;;
18249;SDS011;27980;52.126;5.572;2023-03-11T12:36:06;3.17;;;1.05;;
18249;SDS011;27980;52.126;5.572;2023-03-11T12:38:34;1.33;;;0.70;;
18249;SDS011;27980;52.126;5.572;2023-03-11T12:41:03;2.17;;;1.08;;
18249;SDS011;27980;52.126;5.572;2023-03-11T12:46:16;2.67;;;1.30;;
18249;SDS011;27980;52.126;5.572;2023-03-11T12:48:43;1.45;;;0.90;;
18249;SDS011;27980;52.126;5.572;2023-03-11T12:53:54;2.60;;;0.90;;
18249;SDS011;27980;52.126;5.572;2023-03-11T12:56:24;3.40;;;1.10;;
18249;SDS011;27980;52.126;5.572;2023-03-11T12:58:59;2.80;;;0.90;;
18249;SDS011;27980;52.126;5.572;2023-03-11T13:04:29;1.02;;;0.70;;
18249;SDS011;27980;52.126;5.572;2023-03-11T13:09:41;1.02;;;0.70;;
18249;SDS011;27980;52.126;5.572;2023-03-11T13:14:50;1.73;;;0.80;;
18249;SDS011;27980;52.126;5.572;2023-03-11T13:17:36;2.80;;;0.93;;
18249;SDS011;27980;52.126;5.572;2023-03-11T13:20:07;3.58;;;0.82;;
18249;SDS011;27980;52.126;5.572;2023-03-11T13:25:40;3.90;;;0.90;;
18249;SDS011;27980;52.126;5.572;2023-03-11T13:28:18;1.63;;;0.80;;
18249;SDS011;27980;52.126;5.572;2023-03-11T13:30:50;4.47;;;1.38;;
18249;SDS011;27980;52.126;5.572;2023-03-11T13:33:20;2.67;;;1.08;;
18249;SDS011;27980;52.126;5.572;2023-03-11T13:35:57;2.05;;;0.80;;
18249;SDS011;27980;52.126;5.572;2023-03-11T13:41:13;0.75;;;0.65;;
18249;SDS011;27980;52.126;5.572;2023-03-11T13:43:42;2.42;;;0.82;;
18249;SDS011;27980;52.126;5.572;2023-03-11T13:46:12;1.50;;;0.90;;
18249;SDS011;27980;52.126;5.572;2023-03-11T13:48:40;2.47;;;0.90;;
18249;SDS011;27980;52.126;5.572;2023-03-11T13:51:12;2.30;;;0.70;;
18249;SDS011;27980;52.126;5.572;2023-03-11T13:53:41;3.53;;;0.70;;
18249;SDS011;27980;52.126;5.572;2023-03-11T13:56:15;1.88;;;0.57;;
18249;SDS011;27980;52.126;5.572;2023-03-11T13:58:42;2.08;;;0.80;;
18249;SDS011;27980;52.126;5.572;2023-03-11T14:01:10;2.38;;;0.75;;
18249;SDS011;27980;52.126;5.572;2023-03-11T14:03:40;2.53;;;1.00;;
18249;SDS011;27980;52.126;5.572;2023-03-11T14:06:08;4.05;;;1.08;;
18249;SDS011;27980;52.126;5.572;2023-03-11T14:08:38;1.58;;;0.70;;
18249;SDS011;27980;52.126;5.572;2023-03-11T14:11:13;1.02;;;0.70;;
18249;SDS011;27980;52.126;5.572;2023-03-11T14:13:42;2.33;;;0.90;;
18249;SDS011;27980;52.126;5.572;2023-03-11T14:16:09;3.25;;;0.80;;
18249;SDS011;27980;52.126;5.572;2023-03-11T14:18:39;3.70;;;1.02;;
18249;SDS011;27980;52.126;5.572;2023-03-11T14:21:09;4.22;;;1.10;;
18249;SDS011;27980;52.126;5.572;2023-03-11T14:23:40;3.47;;;0.93;;
18249;SDS011;27980;52.126;5.572;2023-03-11T14:26:08;2.72;;;1.10;;
18249;SDS011;27980;52.126;5.572;2023-03-11T14:28:39;3.75;;;1.20;;
18249;SDS011;27980;52.126;5.572;2023-03-11T14:31:06;2.58;;;0.90;;
18249;SDS011;27980;52.126;5.572;2023-03-11T14:33:34;2.78;;;1.10;;
18249;SDS011;27980;52.126;5.572;2023-03-11T14:36:01;1.88;;;0.80;;
18249;SDS011;27980;52.126;5.572;2023-03-11T14:38:29;3.30;;;0.90;;
18249;SDS011;27980;52.126;5.572;2023-03-11T14:40:57;1.35;;;0.90;;
18249;SDS011;27980;52.126;5.572;2023-03-11T14:43:24;3.50;;;0.90;;
18249;SDS011;27980;52.126;5.572;2023-03-11T14:45:51;1.17;;;0.90;;
18249;SDS011;27980;52.126;5.572;2023-03-11T14:48:19;1.48;;;0.80;;
18249;SDS011;27980;52.126;5.572;2023-03-11T14:50:47;1.65;;;1.00;;
18249;SDS011;27980;52.126;5.572;2023-03-11T14:53:16;3.75;;;0.90;;
18249;SDS011;27980;52.126;5.572;2023-03-11T14:55:43;2.92;;;0.90;;
18249;SDS011;27980;52.126;5.572;2023-03-11T14:58:17;4.20;;;1.00;;
18249;SDS011;27980;52.126;5.572;2023-03-11T15:00:47;2.50;;;1.27;;
18249;SDS011;27980;52.126;5.572;2023-03-11T15:03:17;2.45;;;1.10;;
18249;SDS011;27980;52.126;5.572;2023-03-11T15:05:47;1.13;;;0.90;;
18249;SDS011;27980;52.126;5.572;2023-03-11T15:08:16;3.38;;;1.90;;
18249;SDS011;27980;52.126;5.572;2023-03-11T15:13:26;7.75;;;4.18;;
18249;SDS011;27980;52.126;5.572;2023-03-11T15:15:55;7.53;;;3.55;;
18249;SDS011;27980;52.126;5.572;2023-03-11T15:18:23;5.05;;;1.90;;
18249;SDS011;27980;52.126;5.572;2023-03-11T15:21:03;5.13;;;1.27;;